Cedro, Brazil
Current Conditions -  °F | °C
As of 5:00 PM on Friday 24 Oct 2014 (Local Time) from SBJU Reporting Station
Few Clouds Few Clouds  
Wind Chill: 97°   Ceiling: Unl
Heat Index: 97°   Visibility: 6mi
Dew Point: 57°   Wind: 7mph
Humidity: 27%   Direction: 190°S
Pressure: 29.88"   Gusts: NA
Location:  7.72°S, 39.24°W
Report Text: SBJU 242000Z 19006KT 9999 FEW022 36/14 Q1012
Loading
Personal Weather Stations






























Interactive Weather Map
Tropical Storm Tracking
New forecast layout! Learn more

10-Day Weather Forecast

Advertisements
Track Severe Weather on mobile